sensor_id;sensor_type;location;lat;lon;timestamp;P1;durP1;ratioP1;P2;durP2;ratioP2
20154;SDS011;10238;49.556;10.956;2024-03-06T00:02:36;18.08;;;10.32;;
20154;SDS011;10238;49.556;10.956;2024-03-06T00:05:24;13.90;;;8.57;;
20154;SDS011;10238;49.556;10.956;2024-03-06T00:08:13;16.77;;;9.88;;
20154;SDS011;10238;49.556;10.956;2024-03-06T00:11:01;20.88;;;10.85;;
20154;SDS011;10238;49.556;10.956;2024-03-06T00:13:49;14.55;;;8.95;;
20154;SDS011;10238;49.556;10.956;2024-03-06T00:16:37;17.35;;;10.00;;
20154;SDS011;10238;49.556;10.956;2024-03-06T00:19:24;14.00;;;8.57;;
20154;SDS011;10238;49.556;10.956;2024-03-06T00:22:12;15.65;;;8.80;;
20154;SDS011;10238;49.556;10.956;2024-03-06T00:25:01;15.57;;;10.43;;
20154;SDS011;10238;49.556;10.956;2024-03-06T00:27:49;12.40;;;8.20;;
20154;SDS011;10238;49.556;10.956;2024-03-06T00:30:36;16.83;;;10.63;;
20154;SDS011;10238;49.556;10.956;2024-03-06T00:33:24;13.40;;;7.88;;
20154;SDS011;10238;49.556;10.956;2024-03-06T00:36:12;14.60;;;9.55;;
20154;SDS011;10238;49.556;10.956;2024-03-06T00:38:59;15.15;;;10.07;;
20154;SDS011;10238;49.556;10.956;2024-03-06T00:41:53;16.50;;;9.98;;
20154;SDS011;10238;49.556;10.956;2024-03-06T00:44:41;16.75;;;10.80;;
20154;SDS011;10238;49.556;10.956;2024-03-06T00:47:31;17.50;;;10.20;;
20154;SDS011;10238;49.556;10.956;2024-03-06T00:50:20;20.85;;;10.82;;
20154;SDS011;10238;49.556;10.956;2024-03-06T00:53:08;11.35;;;7.57;;
20154;SDS011;10238;49.556;10.956;2024-03-06T00:55:56;17.58;;;11.13;;
20154;SDS011;10238;49.556;10.956;2024-03-06T00:58:45;14.63;;;9.43;;
20154;SDS011;10238;49.556;10.956;2024-03-06T01:01:33;16.35;;;9.68;;
20154;SDS011;10238;49.556;10.956;2024-03-06T01:04:21;14.65;;;9.38;;
20154;SDS011;10238;49.556;10.956;2024-03-06T01:07:08;16.88;;;10.18;;
20154;SDS011;10238;49.556;10.956;2024-03-06T01:09:56;16.25;;;10.65;;
20154;SDS011;10238;49.556;10.956;2024-03-06T01:12:44;16.27;;;8.48;;
20154;SDS011;10238;49.556;10.956;2024-03-06T01:15:33;16.88;;;10.23;;
20154;SDS011;10238;49.556;10.956;2024-03-06T01:18:21;12.40;;;7.93;;
20154;SDS011;10238;49.556;10.956;2024-03-06T01:21:10;11.48;;;7.55;;
20154;SDS011;10238;49.556;10.956;2024-03-06T01:23:57;18.45;;;10.63;;
20154;SDS011;10238;49.556;10.956;2024-03-06T01:26:45;19.67;;;10.25;;
20154;SDS011;10238;49.556;10.956;2024-03-06T01:29:32;16.17;;;10.50;;
20154;SDS011;10238;49.556;10.956;2024-03-06T01:32:21;17.30;;;9.82;;
20154;SDS011;10238;49.556;10.956;2024-03-06T01:35:09;15.95;;;10.07;;
20154;SDS011;10238;49.556;10.956;2024-03-06T01:37:57;13.75;;;9.30;;
20154;SDS011;10238;49.556;10.956;2024-03-06T01:40:46;18.30;;;10.90;;
20154;SDS011;10238;49.556;10.956;2024-03-06T01:43:36;15.30;;;9.27;;
20154;SDS011;10238;49.556;10.956;2024-03-06T01:46:25;17.02;;;9.75;;
20154;SDS011;10238;49.556;10.956;2024-03-06T01:49:15;14.18;;;9.27;;
20154;SDS011;10238;49.556;10.956;2024-03-06T01:52:17;18.73;;;10.38;;
20154;SDS011;10238;49.556;10.956;2024-03-06T01:55:08;16.90;;;10.57;;
20154;SDS011;10238;49.556;10.956;2024-03-06T01:57:57;18.05;;;10.18;;
20154;SDS011;10238;49.556;10.956;2024-03-06T02:00:44;17.88;;;10.50;;
20154;SDS011;10238;49.556;10.956;2024-03-06T02:03:32;16.20;;;10.38;;
20154;SDS011;10238;49.556;10.956;2024-03-06T02:06:22;16.15;;;10.85;;
20154;SDS011;10238;49.556;10.956;2024-03-06T02:09:10;16.27;;;9.63;;
20154;SDS011;10238;49.556;10.956;2024-03-06T02:11:59;18.33;;;11.52;;
20154;SDS011;10238;49.556;10.956;2024-03-06T02:14:47;16.88;;;10.38;;
20154;SDS011;10238;49.556;10.956;2024-03-06T02:17:35;18.48;;;10.73;;
20154;SDS011;10238;49.556;10.956;2024-03-06T02:20:24;16.38;;;10.40;;
20154;SDS011;10238;49.556;10.956;2024-03-06T02:23:13;16.10;;;10.10;;
20154;SDS011;10238;49.556;10.956;2024-03-06T02:26:03;17.73;;;10.45;;
20154;SDS011;10238;49.556;10.956;2024-03-06T02:28:54;16.92;;;10.40;;
20154;SDS011;10238;49.556;10.956;2024-03-06T02:31:44;18.55;;;11.25;;
20154;SDS011;10238;49.556;10.956;2024-03-06T02:34:33;17.63;;;11.07;;
20154;SDS011;10238;49.556;10.956;2024-03-06T02:37:22;16.88;;;10.68;;
20154;SDS011;10238;49.556;10.956;2024-03-06T02:40:10;19.13;;;10.80;;
20154;SDS011;10238;49.556;10.956;2024-03-06T02:42:58;21.80;;;11.68;;
20154;SDS011;10238;49.556;10.956;2024-03-06T02:45:46;19.08;;;11.20;;
20154;SDS011;10238;49.556;10.956;2024-03-06T02:48:34;18.65;;;10.88;;
20154;SDS011;10238;49.556;10.956;2024-03-06T02:51:23;21.55;;;11.70;;
20154;SDS011;10238;49.556;10.956;2024-03-06T02:54:11;18.05;;;10.27;;
20154;SDS011;10238;49.556;10.956;2024-03-06T02:57:03;19.55;;;11.10;;
20154;SDS011;10238;49.556;10.956;2024-03-06T02:59:51;22.63;;;12.45;;
20154;SDS011;10238;49.556;10.956;2024-03-06T03:02:38;17.77;;;10.85;;
20154;SDS011;10238;49.556;10.956;2024-03-06T03:05:29;19.90;;;11.20;;
20154;SDS011;10238;49.556;10.956;2024-03-06T03:08:17;19.52;;;11.95;;
20154;SDS011;10238;49.556;10.956;2024-03-06T03:11:06;20.75;;;12.55;;
20154;SDS011;10238;49.556;10.956;2024-03-06T03:13:56;27.77;;;13.63;;
20154;SDS011;10238;49.556;10.956;2024-03-06T03:16:43;19.98;;;12.00;;
20154;SDS011;10238;49.556;10.956;2024-03-06T03:19:33;21.20;;;11.98;;
20154;SDS011;10238;49.556;10.956;2024-03-06T03:22:20;20.17;;;11.40;;
20154;SDS011;10238;49.556;10.956;2024-03-06T03:25:09;23.48;;;13.27;;
20154;SDS011;10238;49.556;10.956;2024-03-06T03:28:00;19.40;;;12.13;;
20154;SDS011;10238;49.556;10.956;2024-03-06T03:30:48;20.17;;;11.75;;
20154;SDS011;10238;49.556;10.956;2024-03-06T03:33:35;19.05;;;12.02;;
20154;SDS011;10238;49.556;10.956;2024-03-06T03:36:25;20.00;;;11.10;;
20154;SDS011;10238;49.556;10.956;2024-03-06T03:39:13;19.35;;;12.05;;
20154;SDS011;10238;49.556;10.956;2024-03-06T03:42:02;23.42;;;12.57;;
20154;SDS011;10238;49.556;10.956;2024-03-06T03:44:53;20.83;;;12.15;;
20154;SDS011;10238;49.556;10.956;2024-03-06T03:47:41;23.45;;;12.38;;
20154;SDS011;10238;49.556;10.956;2024-03-06T03:50:29;19.10;;;12.25;;
20154;SDS011;10238;49.556;10.956;2024-03-06T03:53:17;21.17;;;11.93;;
20154;SDS011;10238;49.556;10.956;2024-03-06T03:56:05;20.55;;;12.73;;
20154;SDS011;10238;49.556;10.956;2024-03-06T03:58:53;22.70;;;13.70;;
20154;SDS011;10238;49.556;10.956;2024-03-06T04:01:49;23.73;;;13.18;;
20154;SDS011;10238;49.556;10.956;2024-03-06T04:04:37;24.63;;;12.43;;
20154;SDS011;10238;49.556;10.956;2024-03-06T04:07:25;24.67;;;13.82;;
20154;SDS011;10238;49.556;10.956;2024-03-06T04:10:13;23.20;;;13.98;;
20154;SDS011;10238;49.556;10.956;2024-03-06T04:13:01;21.83;;;13.07;;
20154;SDS011;10238;49.556;10.956;2024-03-06T04:15:48;26.48;;;14.18;;
20154;SDS011;10238;49.556;10.956;2024-03-06T04:18:37;26.50;;;14.55;;
20154;SDS011;10238;49.556;10.956;2024-03-06T04:21:27;22.98;;;13.60;;
20154;SDS011;10238;49.556;10.956;2024-03-06T04:24:15;23.38;;;12.80;;
20154;SDS011;10238;49.556;10.956;2024-03-06T04:27:03;26.30;;;14.45;;
20154;SDS011;10238;49.556;10.956;2024-03-06T04:29:51;26.52;;;15.10;;
20154;SDS011;10238;49.556;10.956;2024-03-06T04:32:39;25.50;;;14.88;;
20154;SDS011;10238;49.556;10.956;2024-03-06T04:35:28;26.15;;;15.07;;
20154;SDS011;10238;49.556;10.956;2024-03-06T04:38:15;26.30;;;14.18;;
20154;SDS011;10238;49.556;10.956;2024-03-06T04:41:04;26.63;;;14.35;;
20154;SDS011;10238;49.556;10.956;2024-03-06T04:43:53;24.02;;;13.38;;
20154;SDS011;10238;49.556;10.956;2024-03-06T04:46:40;22.90;;;13.50;;
20154;SDS011;10238;49.556;10.956;2024-03-06T04:49:32;26.45;;;14.65;;
20154;SDS011;10238;49.556;10.956;2024-03-06T04:52:23;27.48;;;15.18;;
20154;SDS011;10238;49.556;10.956;2024-03-06T04:55:11;24.50;;;14.43;;
20154;SDS011;10238;49.556;10.956;2024-03-06T04:58:00;24.73;;;14.35;;
20154;SDS011;10238;49.556;10.956;2024-03-06T05:00:50;30.05;;;15.13;;
20154;SDS011;10238;49.556;10.956;2024-03-06T05:03:37;28.27;;;14.25;;
20154;SDS011;10238;49.556;10.956;2024-03-06T05:06:42;26.58;;;14.48;;
20154;SDS011;10238;49.556;10.956;2024-03-06T05:09:49;27.15;;;15.02;;
20154;SDS011;10238;49.556;10.956;2024-03-06T05:12:55;29.40;;;15.05;;
20154;SDS011;10238;49.556;10.956;2024-03-06T05:16:00;29.20;;;14.75;;
20154;SDS011;10238;49.556;10.956;2024-03-06T05:19:05;25.23;;;14.20;;
20154;SDS011;10238;49.556;10.956;2024-03-06T05:22:10;33.70;;;16.17;;
20154;SDS011;10238;49.556;10.956;2024-03-06T05:25:18;30.15;;;15.18;;
20154;SDS011;10238;49.556;10.956;2024-03-06T05:28:23;30.05;;;15.73;;
20154;SDS011;10238;49.556;10.956;2024-03-06T05:31:30;26.98;;;14.18;;
20154;SDS011;10238;49.556;10.956;2024-03-06T05:34:36;28.50;;;15.18;;
20154;SDS011;10238;49.556;10.956;2024-03-06T05:37:41;34.05;;;16.42;;
20154;SDS011;10238;49.556;10.956;2024-03-06T05:40:49;29.55;;;15.73;;
20154;SDS011;10238;49.556;10.956;2024-03-06T05:43:55;27.73;;;15.32;;
20154;SDS011;10238;49.556;10.956;2024-03-06T05:47:01;26.77;;;15.00;;
20154;SDS011;10238;49.556;10.956;2024-03-06T05:53:48;32.15;;;16.27;;
20154;SDS011;10238;49.556;10.956;2024-03-06T05:56:57;24.23;;;13.55;;
20154;SDS011;10238;49.556;10.956;2024-03-06T06:00:03;29.48;;;15.45;;
20154;SDS011;10238;49.556;10.956;2024-03-06T06:02:57;28.90;;;15.52;;
20154;SDS011;10238;49.556;10.956;2024-03-06T06:05:47;28.38;;;15.70;;
20154;SDS011;10238;49.556;10.956;2024-03-06T06:08:35;28.00;;;14.80;;
20154;SDS011;10238;49.556;10.956;2024-03-06T06:11:23;29.92;;;16.60;;
20154;SDS011;10238;49.556;10.956;2024-03-06T06:14:12;29.67;;;16.25;;
20154;SDS011;10238;49.556;10.956;2024-03-06T06:17:00;28.85;;;15.57;;
20154;SDS011;10238;49.556;10.956;2024-03-06T06:19:52;32.20;;;16.38;;
20154;SDS011;10238;49.556;10.956;2024-03-06T06:22:39;31.25;;;15.95;;
20154;SDS011;10238;49.556;10.956;2024-03-06T06:25:27;30.85;;;15.85;;
20154;SDS011;10238;49.556;10.956;2024-03-06T06:28:15;30.58;;;16.10;;
20154;SDS011;10238;49.556;10.956;2024-03-06T06:31:07;30.92;;;16.10;;
20154;SDS011;10238;49.556;10.956;2024-03-06T06:34:00;32.10;;;16.08;;
20154;SDS011;10238;49.556;10.956;2024-03-06T06:36:47;31.38;;;16.42;;
20154;SDS011;10238;49.556;10.956;2024-03-06T06:39:40;30.37;;;16.27;;
20154;SDS011;10238;49.556;10.956;2024-03-06T06:42:28;32.22;;;17.13;;
20154;SDS011;10238;49.556;10.956;2024-03-06T06:45:18;30.85;;;15.95;;
20154;SDS011;10238;49.556;10.956;2024-03-06T06:48:09;25.48;;;14.63;;
20154;SDS011;10238;49.556;10.956;2024-03-06T06:50:58;34.80;;;17.38;;
20154;SDS011;10238;49.556;10.956;2024-03-06T06:53:48;31.10;;;16.55;;
20154;SDS011;10238;49.556;10.956;2024-03-06T06:56:45;29.33;;;14.98;;
20154;SDS011;10238;49.556;10.956;2024-03-06T06:59:34;28.75;;;15.50;;
20154;SDS011;10238;49.556;10.956;2024-03-06T07:02:23;27.35;;;15.82;;
20154;SDS011;10238;49.556;10.956;2024-03-06T07:05:15;32.30;;;17.17;;
20154;SDS011;10238;49.556;10.956;2024-03-06T07:08:03;25.67;;;15.25;;
20154;SDS011;10238;49.556;10.956;2024-03-06T07:10:54;29.10;;;14.88;;
20154;SDS011;10238;49.556;10.956;2024-03-06T07:13:43;34.28;;;17.48;;
20154;SDS011;10238;49.556;10.956;2024-03-06T07:16:31;32.53;;;16.15;;
20154;SDS011;10238;49.556;10.956;2024-03-06T07:19:18;29.42;;;15.85;;
20154;SDS011;10238;49.556;10.956;2024-03-06T07:22:08;32.05;;;16.17;;
20154;SDS011;10238;49.556;10.956;2024-03-06T07:24:56;33.38;;;16.83;;
20154;SDS011;10238;49.556;10.956;2024-03-06T07:27:43;31.70;;;16.67;;
20154;SDS011;10238;49.556;10.956;2024-03-06T07:30:31;31.88;;;16.80;;
20154;SDS011;10238;49.556;10.956;2024-03-06T07:33:18;32.50;;;16.27;;
20154;SDS011;10238;49.556;10.956;2024-03-06T07:36:06;31.63;;;16.23;;
20154;SDS011;10238;49.556;10.956;2024-03-06T07:38:57;31.80;;;16.23;;
20154;SDS011;10238;49.556;10.956;2024-03-06T07:41:46;29.42;;;15.02;;
20154;SDS011;10238;49.556;10.956;2024-03-06T07:44:36;35.72;;;17.55;;
20154;SDS011;10238;49.556;10.956;2024-03-06T07:47:24;33.72;;;16.17;;
20154;SDS011;10238;49.556;10.956;2024-03-06T07:50:15;34.88;;;17.98;;
20154;SDS011;10238;49.556;10.956;2024-03-06T07:53:05;30.90;;;15.85;;
20154;SDS011;10238;49.556;10.956;2024-03-06T07:55:54;30.00;;;15.93;;
20154;SDS011;10238;49.556;10.956;2024-03-06T07:58:42;33.25;;;16.20;;
20154;SDS011;10238;49.556;10.956;2024-03-06T08:01:29;30.88;;;16.08;;
20154;SDS011;10238;49.556;10.956;2024-03-06T08:04:18;31.42;;;16.50;;
20154;SDS011;10238;49.556;10.956;2024-03-06T08:07:06;34.58;;;17.63;;
20154;SDS011;10238;49.556;10.956;2024-03-06T08:09:53;29.17;;;15.27;;
20154;SDS011;10238;49.556;10.956;2024-03-06T08:12:42;27.52;;;16.23;;
20154;SDS011;10238;49.556;10.956;2024-03-06T08:15:31;41.08;;;20.65;;
20154;SDS011;10238;49.556;10.956;2024-03-06T08:18:19;29.85;;;15.80;;
20154;SDS011;10238;49.556;10.956;2024-03-06T08:21:07;31.58;;;16.92;;
20154;SDS011;10238;49.556;10.956;2024-03-06T08:23:54;36.85;;;17.52;;
20154;SDS011;10238;49.556;10.956;2024-03-06T08:26:42;28.70;;;15.90;;
20154;SDS011;10238;49.556;10.956;2024-03-06T08:29:31;34.97;;;16.83;;
20154;SDS011;10238;49.556;10.956;2024-03-06T08:32:19;36.47;;;17.52;;
20154;SDS011;10238;49.556;10.956;2024-03-06T08:35:08;33.20;;;16.63;;
20154;SDS011;10238;49.556;10.956;2024-03-06T08:38:03;34.25;;;17.13;;
20154;SDS011;10238;49.556;10.956;2024-03-06T08:40:52;32.90;;;16.55;;
20154;SDS011;10238;49.556;10.956;2024-03-06T08:43:43;34.60;;;16.80;;
20154;SDS011;10238;49.556;10.956;2024-03-06T08:46:33;30.67;;;15.73;;
20154;SDS011;10238;49.556;10.956;2024-03-06T08:49:26;32.50;;;15.55;;
20154;SDS011;10238;49.556;10.956;2024-03-06T08:52:15;39.85;;;18.55;;
20154;SDS011;10238;49.556;10.956;2024-03-06T08:55:09;30.27;;;15.50;;
20154;SDS011;10238;49.556;10.956;2024-03-06T08:58:01;33.80;;;16.67;;
20154;SDS011;10238;49.556;10.956;2024-03-06T09:00:53;30.85;;;16.42;;
20154;SDS011;10238;49.556;10.956;2024-03-06T09:03:43;36.65;;;16.08;;
20154;SDS011;10238;49.556;10.956;2024-03-06T09:06:30;26.73;;;14.90;;
20154;SDS011;10238;49.556;10.956;2024-03-06T09:09:18;29.20;;;14.68;;
20154;SDS011;10238;49.556;10.956;2024-03-06T09:12:06;30.27;;;15.82;;
20154;SDS011;10238;49.556;10.956;2024-03-06T09:14:55;25.95;;;13.57;;
20154;SDS011;10238;49.556;10.956;2024-03-06T09:17:43;29.70;;;14.55;;
20154;SDS011;10238;49.556;10.956;2024-03-06T09:20:34;31.23;;;15.30;;
20154;SDS011;10238;49.556;10.956;2024-03-06T09:23:26;26.83;;;14.68;;
20154;SDS011;10238;49.556;10.956;2024-03-06T09:26:19;28.10;;;14.43;;
20154;SDS011;10238;49.556;10.956;2024-03-06T09:29:19;25.27;;;14.05;;
20154;SDS011;10238;49.556;10.956;2024-03-06T09:32:08;24.67;;;13.15;;
20154;SDS011;10238;49.556;10.956;2024-03-06T09:35:14;24.52;;;12.77;;
20154;SDS011;10238;49.556;10.956;2024-03-06T09:38:08;25.27;;;13.38;;
20154;SDS011;10238;49.556;10.956;2024-03-06T09:41:05;21.10;;;11.70;;
20154;SDS011;10238;49.556;10.956;2024-03-06T09:44:02;22.80;;;12.13;;
20154;SDS011;10238;49.556;10.956;2024-03-06T09:47:05;24.02;;;12.55;;
20154;SDS011;10238;49.556;10.956;2024-03-06T09:49:54;24.00;;;12.80;;
20154;SDS011;10238;49.556;10.956;2024-03-06T09:52:43;25.52;;;12.95;;
20154;SDS011;10238;49.556;10.956;2024-03-06T09:55:38;24.85;;;13.95;;
20154;SDS011;10238;49.556;10.956;2024-03-06T09:58:28;27.25;;;14.32;;
20154;SDS011;10238;49.556;10.956;2024-03-06T10:01:23;27.38;;;12.15;;
20154;SDS011;10238;49.556;10.956;2024-03-06T10:04:23;22.05;;;11.70;;
20154;SDS011;10238;49.556;10.956;2024-03-06T10:07:20;23.83;;;12.55;;
20154;SDS011;10238;49.556;10.956;2024-03-06T10:10:08;21.25;;;11.48;;
20154;SDS011;10238;49.556;10.956;2024-03-06T10:12:59;26.98;;;12.50;;
20154;SDS011;10238;49.556;10.956;2024-03-06T10:15:55;35.63;;;20.98;;
20154;SDS011;10238;49.556;10.956;2024-03-06T10:18:50;28.35;;;14.13;;
20154;SDS011;10238;49.556;10.956;2024-03-06T10:21:40;26.85;;;14.15;;
20154;SDS011;10238;49.556;10.956;2024-03-06T10:24:38;23.85;;;12.85;;
20154;SDS011;10238;49.556;10.956;2024-03-06T10:27:29;25.30;;;13.15;;
20154;SDS011;10238;49.556;10.956;2024-03-06T10:30:21;19.58;;;11.10;;
20154;SDS011;10238;49.556;10.956;2024-03-06T10:33:10;22.52;;;11.80;;
20154;SDS011;10238;49.556;10.956;2024-03-06T10:36:01;23.65;;;11.93;;
20154;SDS011;10238;49.556;10.956;2024-03-06T10:38:59;22.63;;;11.50;;
20154;SDS011;10238;49.556;10.956;2024-03-06T10:42:23;22.02;;;11.77;;
20154;SDS011;10238;49.556;10.956;2024-03-06T10:45:26;22.80;;;11.32;;
20154;SDS011;10238;49.556;10.956;2024-03-06T10:48:39;23.67;;;12.13;;
20154;SDS011;10238;49.556;10.956;2024-03-06T10:51:39;21.38;;;11.48;;
20154;SDS011;10238;49.556;10.956;2024-03-06T10:54:31;22.77;;;11.63;;
20154;SDS011;10238;49.556;10.956;2024-03-06T10:57:30;21.15;;;11.90;;
20154;SDS011;10238;49.556;10.956;2024-03-06T11:00:20;23.45;;;12.30;;
20154;SDS011;10238;49.556;10.956;2024-03-06T11:03:16;20.08;;;11.38;;
20154;SDS011;10238;49.556;10.956;2024-03-06T11:06:04;24.13;;;11.95;;
20154;SDS011;10238;49.556;10.956;2024-03-06T11:08:53;23.33;;;12.43;;
20154;SDS011;10238;49.556;10.956;2024-03-06T11:11:47;23.45;;;12.15;;
20154;SDS011;10238;49.556;10.956;2024-03-06T11:14:37;23.33;;;12.65;;
20154;SDS011;10238;49.556;10.956;2024-03-06T11:17:26;23.15;;;12.38;;
20154;SDS011;10238;49.556;10.956;2024-03-06T11:20:17;22.65;;;13.02;;
20154;SDS011;10238;49.556;10.956;2024-03-06T11:23:07;25.13;;;13.27;;
20154;SDS011;10238;49.556;10.956;2024-03-06T11:26:02;23.60;;;12.25;;
20154;SDS011;10238;49.556;10.956;2024-03-06T11:28:51;19.02;;;10.57;;
20154;SDS011;10238;49.556;10.956;2024-03-06T11:31:39;23.30;;;11.82;;
20154;SDS011;10238;49.556;10.956;2024-03-06T11:34:44;20.40;;;10.57;;
20154;SDS011;10238;49.556;10.956;2024-03-06T11:37:34;20.40;;;12.35;;
20154;SDS011;10238;49.556;10.956;2024-03-06T11:40:24;24.05;;;11.80;;
20154;SDS011;10238;49.556;10.956;2024-03-06T11:43:22;20.75;;;11.38;;
20154;SDS011;10238;49.556;10.956;2024-03-06T11:46:12;23.25;;;11.95;;
20154;SDS011;10238;49.556;10.956;2024-03-06T11:49:03;24.73;;;12.55;;
20154;SDS011;10238;49.556;10.956;2024-03-06T11:51:51;20.27;;;11.65;;
20154;SDS011;10238;49.556;10.956;2024-03-06T11:54:41;25.40;;;14.05;;
20154;SDS011;10238;49.556;10.956;2024-03-06T11:57:29;22.70;;;12.02;;
20154;SDS011;10238;49.556;10.956;2024-03-06T12:00:17;21.95;;;10.68;;
20154;SDS011;10238;49.556;10.956;2024-03-06T12:03:05;19.17;;;10.60;;
20154;SDS011;10238;49.556;10.956;2024-03-06T12:05:53;20.10;;;10.90;;
20154;SDS011;10238;49.556;10.956;2024-03-06T12:08:40;19.73;;;10.63;;
20154;SDS011;10238;49.556;10.956;2024-03-06T12:11:29;20.40;;;10.50;;
20154;SDS011;10238;49.556;10.956;2024-03-06T12:14:18;19.67;;;11.02;;
20154;SDS011;10238;49.556;10.956;2024-03-06T12:17:11;21.13;;;11.18;;
20154;SDS011;10238;49.556;10.956;2024-03-06T12:20:02;19.10;;;10.40;;
20154;SDS011;10238;49.556;10.956;2024-03-06T12:22:51;20.90;;;11.30;;
20154;SDS011;10238;49.556;10.956;2024-03-06T12:25:41;19.45;;;11.43;;
20154;SDS011;10238;49.556;10.956;2024-03-06T12:28:50;18.25;;;9.95;;
20154;SDS011;10238;49.556;10.956;2024-03-06T12:31:38;19.67;;;10.73;;
20154;SDS011;10238;49.556;10.956;2024-03-06T12:34:29;22.83;;;12.10;;
20154;SDS011;10238;49.556;10.956;2024-03-06T12:37:17;23.27;;;12.30;;
20154;SDS011;10238;49.556;10.956;2024-03-06T12:40:05;20.65;;;11.05;;
20154;SDS011;10238;49.556;10.956;2024-03-06T12:42:59;21.52;;;11.80;;
20154;SDS011;10238;49.556;10.956;2024-03-06T12:45:52;26.08;;;12.77;;
20154;SDS011;10238;49.556;10.956;2024-03-06T12:48:40;26.38;;;14.10;;
20154;SDS011;10238;49.556;10.956;2024-03-06T12:51:27;26.75;;;12.95;;
20154;SDS011;10238;49.556;10.956;2024-03-06T12:54:15;24.92;;;13.63;;
20154;SDS011;10238;49.556;10.956;2024-03-06T12:57:03;25.13;;;12.70;;
20154;SDS011;10238;49.556;10.956;2024-03-06T12:59:51;27.88;;;12.70;;
20154;SDS011;10238;49.556;10.956;2024-03-06T13:02:40;23.73;;;12.23;;
20154;SDS011;10238;49.556;10.956;2024-03-06T13:05:30;21.50;;;11.70;;
20154;SDS011;10238;49.556;10.956;2024-03-06T13:08:18;23.63;;;11.73;;
20154;SDS011;10238;49.556;10.956;2024-03-06T13:11:06;19.77;;;11.05;;
20154;SDS011;10238;49.556;10.956;2024-03-06T13:13:55;21.40;;;11.57;;
20154;SDS011;10238;49.556;10.956;2024-03-06T13:16:42;22.30;;;12.20;;
20154;SDS011;10238;49.556;10.956;2024-03-06T13:19:33;20.45;;;10.90;;
20154;SDS011;10238;49.556;10.956;2024-03-06T13:22:20;21.55;;;11.00;;
20154;SDS011;10238;49.556;10.956;2024-03-06T13:25:08;17.85;;;10.57;;
20154;SDS011;10238;49.556;10.956;2024-03-06T13:27:57;21.23;;;10.85;;
20154;SDS011;10238;49.556;10.956;2024-03-06T13:30:45;17.98;;;10.55;;
20154;SDS011;10238;49.556;10.956;2024-03-06T13:33:33;19.45;;;10.05;;
20154;SDS011;10238;49.556;10.956;2024-03-06T13:36:23;17.67;;;10.43;;
20154;SDS011;10238;49.556;10.956;2024-03-06T13:39:12;20.10;;;10.05;;
20154;SDS011;10238;49.556;10.956;2024-03-06T13:42:01;20.05;;;11.80;;
20154;SDS011;10238;49.556;10.956;2024-03-06T13:44:49;16.58;;;10.07;;
20154;SDS011;10238;49.556;10.956;2024-03-06T13:47:36;20.58;;;11.13;;
20154;SDS011;10238;49.556;10.956;2024-03-06T13:50:25;19.27;;;10.73;;
20154;SDS011;10238;49.556;10.956;2024-03-06T13:53:17;17.23;;;9.68;;
20154;SDS011;10238;49.556;10.956;2024-03-06T13:56:06;19.35;;;11.20;;
20154;SDS011;10238;49.556;10.956;2024-03-06T13:58:55;17.50;;;10.23;;
20154;SDS011;10238;49.556;10.956;2024-03-06T14:01:42;20.85;;;11.07;;
20154;SDS011;10238;49.556;10.956;2024-03-06T14:04:30;20.88;;;10.60;;
20154;SDS011;10238;49.556;10.956;2024-03-06T14:07:17;16.38;;;9.63;;
20154;SDS011;10238;49.556;10.956;2024-03-06T14:10:07;18.27;;;10.15;;
20154;SDS011;10238;49.556;10.956;2024-03-06T14:12:56;17.33;;;11.50;;
20154;SDS011;10238;49.556;10.956;2024-03-06T14:15:44;22.00;;;10.70;;
20154;SDS011;10238;49.556;10.956;2024-03-06T14:18:33;19.70;;;11.00;;
20154;SDS011;10238;49.556;10.956;2024-03-06T14:21:21;17.58;;;10.00;;
20154;SDS011;10238;49.556;10.956;2024-03-06T14:24:10;19.02;;;10.60;;
20154;SDS011;10238;49.556;10.956;2024-03-06T14:26:59;17.02;;;10.05;;
20154;SDS011;10238;49.556;10.956;2024-03-06T14:29:46;16.52;;;8.75;;
20154;SDS011;10238;49.556;10.956;2024-03-06T14:32:34;19.77;;;10.27;;
20154;SDS011;10238;49.556;10.956;2024-03-06T14:35:22;17.13;;;10.20;;
20154;SDS011;10238;49.556;10.956;2024-03-06T14:38:11;17.00;;;9.40;;
20154;SDS011;10238;49.556;10.956;2024-03-06T14:40:59;15.93;;;8.75;;
20154;SDS011;10238;49.556;10.956;2024-03-06T14:43:50;16.33;;;9.43;;
20154;SDS011;10238;49.556;10.956;2024-03-06T14:46:38;14.15;;;8.40;;
20154;SDS011;10238;49.556;10.956;2024-03-06T14:49:26;15.40;;;9.50;;
20154;SDS011;10238;49.556;10.956;2024-03-06T14:52:17;15.68;;;8.93;;
20154;SDS011;10238;49.556;10.956;2024-03-06T14:55:05;16.50;;;9.70;;
20154;SDS011;10238;49.556;10.956;2024-03-06T14:57:57;17.70;;;10.18;;
20154;SDS011;10238;49.556;10.956;2024-03-06T15:00:46;14.35;;;8.27;;
20154;SDS011;10238;49.556;10.956;2024-03-06T15:03:34;17.60;;;9.20;;
20154;SDS011;10238;49.556;10.956;2024-03-06T15:06:21;12.63;;;8.50;;
20154;SDS011;10238;49.556;10.956;2024-03-06T15:09:09;14.88;;;8.75;;
20154;SDS011;10238;49.556;10.956;2024-03-06T15:11:58;15.23;;;9.13;;
20154;SDS011;10238;49.556;10.956;2024-03-06T15:14:49;14.65;;;8.95;;
20154;SDS011;10238;49.556;10.956;2024-03-06T15:17:44;15.30;;;8.40;;
20154;SDS011;10238;49.556;10.956;2024-03-06T15:20:33;15.18;;;8.95;;
20154;SDS011;10238;49.556;10.956;2024-03-06T15:23:20;14.48;;;8.77;;
20154;SDS011;10238;49.556;10.956;2024-03-06T15:26:08;15.10;;;8.25;;
20154;SDS011;10238;49.556;10.956;2024-03-06T15:28:57;16.02;;;8.40;;
20154;SDS011;10238;49.556;10.956;2024-03-06T15:31:45;17.30;;;9.77;;
20154;SDS011;10238;49.556;10.956;2024-03-06T15:34:34;16.73;;;9.40;;
20154;SDS011;10238;49.556;10.956;2024-03-06T15:37:23;15.52;;;10.10;;
20154;SDS011;10238;49.556;10.956;2024-03-06T15:40:12;18.30;;;10.55;;
20154;SDS011;10238;49.556;10.956;2024-03-06T15:43:00;19.73;;;11.60;;
20154;SDS011;10238;49.556;10.956;2024-03-06T15:45:49;16.75;;;10.20;;
20154;SDS011;10238;49.556;10.956;2024-03-06T15:48:36;19.58;;;11.73;;
20154;SDS011;10238;49.556;10.956;2024-03-06T15:51:26;19.13;;;10.77;;
20154;SDS011;10238;49.556;10.956;2024-03-06T15:54:07;19.98;;;11.82;;
20154;SDS011;10238;49.556;10.956;2024-03-06T15:56:55;20.55;;;12.35;;
20154;SDS011;10238;49.556;10.956;2024-03-06T15:59:43;20.92;;;12.05;;
20154;SDS011;10238;49.556;10.956;2024-03-06T16:02:32;19.02;;;10.82;;
20154;SDS011;10238;49.556;10.956;2024-03-06T16:05:20;22.23;;;10.18;;
20154;SDS011;10238;49.556;10.956;2024-03-06T16:08:07;20.75;;;10.73;;
20154;SDS011;10238;49.556;10.956;2024-03-06T16:10:57;22.05;;;10.85;;
20154;SDS011;10238;49.556;10.956;2024-03-06T16:13:46;19.55;;;10.77;;
20154;SDS011;10238;49.556;10.956;2024-03-06T16:16:34;22.67;;;12.27;;
20154;SDS011;10238;49.556;10.956;2024-03-06T16:19:22;19.13;;;10.90;;
20154;SDS011;10238;49.556;10.956;2024-03-06T16:22:23;21.63;;;11.50;;
20154;SDS011;10238;49.556;10.956;2024-03-06T16:25:13;20.77;;;11.43;;
20154;SDS011;10238;49.556;10.956;2024-03-06T16:28:02;19.13;;;10.95;;
20154;SDS011;10238;49.556;10.956;2024-03-06T16:30:50;21.52;;;11.25;;